Wetterdaten: Woche 28.07.14 - 03.08.14 (KW31)
Datum Zeit Temp. Aussen +5cm Feuchte Auss Luftdruck Regen Sonnenschein Regendauer UV Solar Windben
28.07.2014 00:00 19,4 C 18,0 C 91 % 1014,5 hPa 0,0 l/m 0,00 h 0,00 h 0,0 UV-I 0 W/m 3,6 km/h (1 Bft)
28.07.2014 01:00 19,8 C 18,3 C 89 % 1014,2 hPa 0,0 l/m 0,00 h 0,00 h 0,0 UV-I 0 W/m 2,5 km/h (1 Bft)
28.07.2014 02:00 19,4 C 18,2 C 90 % 1013,6 hPa 0,0 l/m 0,00 h 0,00 h 0,0 UV-I 0 W/m 1,5 km/h (1 Bft)
28.07.2014 03:00 19,0 C 17,8 C 93 % 1013,1 hPa 0,0 l/m 0,00 h 0,00 h 0,0 UV-I 0 W/m 0,4 km/h (0 Bft)
28.07.2014 04:00 18,8 C 17,7 C 95 % 1012,5 hPa 0,0 l/m 0,00 h 0,00 h 0,0 UV-I 0 W/m 0,0 km/h (0 Bft)
28.07.2014 05:00 18,7 C 17,6 C 95 % 1012,0 hPa 0,0 l/m 0,00 h 0,00 h 0,0 UV-I 10 W/m 0,1 km/h (0 Bft)
28.07.2014 06:00 18,7 C 17,7 C 96 % 1011,9 hPa 0,0 l/m 0,17 h 0,00 h 0,0 UV-I 17 W/m 0,0 km/h (0 Bft)
28.07.2014 07:00 19,3 C 18,2 C 94 % 1011,8 hPa 0,0 l/m 0,00 h 0,17 h 0,0 UV-I 45 W/m 0,4 km/h (0 Bft)
28.07.2014 08:00 20,4 C 19,8 C 91 % 1011,5 hPa 0,0 l/m 0,53 h 0,13 h 0,5 UV-I 213 W/m 2,9 km/h (1 Bft)
28.07.2014 09:00 22,5 C 21,3 C 83 % 1011,1 hPa 0,0 l/m 0,67 h 0,00 h 1,0 UV-I 336 W/m 12,0 km/h (2 Bft)
28.07.2014 10:00 24,0 C 25,1 C 77 % 1010,7 hPa 0,0 l/m 0,90 h 0,00 h 2,1 UV-I 495 W/m 15,1 km/h (3 Bft)
28.07.2014 11:00 25,6 C 26,7 C 72 % 1010,4 hPa 0,0 l/m 0,87 h 0,00 h 2,8 UV-I 513 W/m 14,4 km/h (3 Bft)
28.07.2014 12:00 26,7 C 28,1 C 67 % 1009,7 hPa 0,0 l/m 0,47 h 0,00 h 2,9 UV-I 465 W/m 15,2 km/h (3 Bft)
28.07.2014 13:00 23,7 C 22,3 C 72 % 1009,9 hPa 0,2 l/m 0,00 h 0,30 h 0,9 UV-I 144 W/m 22,4 km/h (4 Bft)
28.07.2014 14:00 21,0 C 18,6 C 85 % 1010,0 hPa 0,4 l/m 0,07 h 0,47 h 1,5 UV-I 220 W/m 8,0 km/h (2 Bft)
28.07.2014 15:00 22,4 C 20,6 C 91 % 1009,7 hPa 0,0 l/m 0,20 h 0,37 h 1,5 UV-I 258 W/m 19,0 km/h (3 Bft)
28.07.2014 16:00 24,6 C 23,0 C 83 % 1009,7 hPa 0,0 l/m 0,83 h 0,00 h 2,2 UV-I 485 W/m 16,5 km/h (3 Bft)
28.07.2014 17:00 24,5 C 24,1 C 81 % 1010,0 hPa 0,0 l/m 0,33 h 0,00 h 0,9 UV-I 247 W/m 13,0 km/h (3 Bft)
28.07.2014 18:00 22,5 C 20,5 C 87 % 1010,3 hPa 16,0 l/m 0,00 h 0,77 h 0,0 UV-I 30 W/m 10,1 km/h (2 Bft)
28.07.2014 19:00 20,3 C 18,8 C 96 % 1010,2 hPa 0,2 l/m 0,00 h 0,40 h 0,0 UV-I 46 W/m 3,1 km/h (1 Bft)
28.07.2014 20:00 20,4 C 18,9 C 98 % 1010,7 hPa 0,0 l/m 0,00 h 0,00 h 0,0 UV-I 33 W/m 0,6 km/h (0 Bft)
28.07.2014 21:00 20,1 C 18,4 C 98 % 1010,9 hPa 0,0 l/m 0,00 h 0,00 h 0,0 UV-I 7 W/m 2,2 km/h (1 Bft)
28.07.2014 22:00 19,3 C 17,7 C 99 % 1011,2 hPa 0,0 l/m 0,00 h 0,00 h 0,0 UV-I 0 W/m 0,6 km/h (0 Bft)
28.07.2014 23:00 18,6 C 17,2 C 99 % 1010,9 hPa 0,2 l/m 0,00 h 0,00 h 0,0 UV-I 0 W/m 0,6 km/h (0 Bft)
29.07.2014 00:00 18,1 C 16,7 C 99 % 1010,8 hPa 0,0 l/m 0,00 h 0,00 h 0,0 UV-I 0 W/m 5,3 km/h (1 Bft)
29.07.2014 01:00 17,6 C 16,4 C 100 % 1010,6 hPa 0,0 l/m 0,00 h 0,00 h 0,0 UV-I 0 W/m 1,8 km/h (1 Bft)
29.07.2014 02:00 17,3 C 16,1 C 100 % 1010,5 hPa 0,0 l/m 0,00 h 0,00 h 0,0 UV-I 0 W/m 1,1 km/h (1 Bft)
29.07.2014 03:00 17,1 C 16,1 C 100 % 1010,7 hPa 0,0 l/m 0,00 h 0,00 h 0,0 UV-I 0 W/m 3,4 km/h (1 Bft)
29.07.2014 04:00 16,9 C 15,7 C 100 % 1010,3 hPa 0,0 l/m 0,00 h 0,00 h 0,0 UV-I 0 W/m 0,7 km/h (0 Bft)
29.07.2014 05:00 16,9 C 15,9 C 100 % 1009,9 hPa 0,0 l/m 0,00 h 0,00 h 0,0 UV-I 0 W/m 0,1 km/h (0 Bft)
29.07.2014 06:00 17,2 C 16,3 C 100 % 1010,1 hPa 0,0 l/m 0,00 h 0,10 h 0,0 UV-I 10 W/m 0,1 km/h (0 Bft)
29.07.2014 07:00 17,6 C 16,8 C 100 % 1010,0 hPa 0,0 l/m 0,00 h 0,23 h 0,0 UV-I 39 W/m 3,9 km/h (1 Bft)
29.07.2014 08:00 18,4 C 17,5 C 100 % 1010,1 hPa 0,0 l/m 0,00 h 0,00 h 0,0 UV-I 86 W/m 13,5 km/h (3 Bft)
29.07.2014 09:00 19,0 C 18,3 C 100 % 1010,4 hPa 0,0 l/m 0,00 h 0,00 h 0,3 UV-I 116 W/m 13,7 km/h (3 Bft)
29.07.2014 10:00 20,1 C 20,1 C 100 % 1010,4 hPa 0,0 l/m 0,10 h 0,00 h 1,0 UV-I 230 W/m 12,3 km/h (3 Bft)
29.07.2014 11:00 22,1 C 22,7 C 93 % 1010,4 hPa 0,0 l/m 0,80 h 0,00 h 2,6 UV-I 481 W/m 15,6 km/h (3 Bft)
29.07.2014 12:00 24,4 C 24,7 C 85 % 1010,1 hPa 0,0 l/m 0,83 h 0,00 h 3,4 UV-I 551 W/m 16,9 km/h (3 Bft)
29.07.2014 13:00 25,4 C 23,3 C 80 % 1009,6 hPa 0,0 l/m 0,43 h 0,00 h 2,7 UV-I 458 W/m 16,2 km/h (3 Bft)
29.07.2014 14:00 24,4 C 22,8 C 83 % 1009,2 hPa 12,4 l/m 0,33 h 0,50 h 3,5 UV-I 290 W/m 20,7 km/h (4 Bft)
29.07.2014 15:00 20,7 C 19,1 C 96 % 1008,8 hPa 11,8 l/m 0,00 h 0,20 h 0,6 UV-I 105 W/m 8,1 km/h (2 Bft)
29.07.2014 16:00 22,1 C 20,9 C 99 % 1008,4 hPa 0,0 l/m 0,00 h 0,10 h 0,6 UV-I 147 W/m 2,3 km/h (1 Bft)
29.07.2014 17:00 20,5 C 18,7 C 97 % 1008,9 hPa 17,2 l/m 0,00 h 0,90 h 0,0 UV-I 28 W/m 15,7 km/h (3 Bft)
29.07.2014 18:00 19,7 C 18,3 C 99 % 1008,4 hPa 0,2 l/m 0,00 h 0,30 h 0,0 UV-I 55 W/m 2,1 km/h (1 Bft)
29.07.2014 19:00 19,8 C 18,5 C 99 % 1008,4 hPa 0,0 l/m 0,00 h 0,00 h 0,0 UV-I 43 W/m 0,1 km/h (0 Bft)
29.07.2014 20:00 19,8 C 18,7 C 100 % 1008,8 hPa 0,0 l/m 0,00 h 0,00 h 0,0 UV-I 14 W/m 4,2 km/h (1 Bft)
29.07.2014 21:00 19,6 C 18,3 C 100 % 1009,1 hPa 0,0 l/m 0,00 h 0,00 h 0,0 UV-I 5 W/m 7,3 km/h (2 Bft)
29.07.2014 22:00 20,1 C 18,7 C 100 % 1009,6 hPa 0,0 l/m 0,00 h 0,00 h 0,0 UV-I 0 W/m 15,8 km/h (3 Bft)
29.07.2014 23:00 20,4 C 18,6 C 97 % 1009,8 hPa 0,0 l/m 0,00 h 0,00 h 0,0 UV-I 0 W/m 7,5 km/h (2 Bft)
30.07.2014 00:00 19,9 C 18,4 C 98 % 1010,0 hPa 0,0 l/m 0,00 h 0,00 h 0,0 UV-I 0 W/m 12,4 km/h (3 Bft)
30.07.2014 01:00 19,3 C 17,9 C 97 % 1010,0 hPa 0,0 l/m 0,00 h 0,00 h 0,0 UV-I 0 W/m 14,4 km/h (3 Bft)
30.07.2014 02:00 18,8 C 17,5 C 96 % 1010,1 hPa 0,0 l/m 0,00 h 0,00 h 0,0 UV-I 0 W/m 14,8 km/h (3 Bft)
30.07.2014 03:00 17,9 C 16,8 C 97 % 1010,1 hPa 0,0 l/m 0,00 h 0,00 h 0,0 UV-I 0 W/m 13,6 km/h (3 Bft)
30.07.2014 04:00 17,5 C 16,5 C 97 % 1010,1 hPa 0,0 l/m 0,00 h 0,00 h 0,0 UV-I 0 W/m 16,3 km/h (3 Bft)
30.07.2014 05:00 16,9 C 15,8 C 97 % 1010,5 hPa 0,0 l/m 0,00 h 0,00 h 0,0 UV-I 0 W/m 15,1 km/h (3 Bft)
30.07.2014 06:00 16,5 C 15,6 C 97 % 1011,0 hPa 0,0 l/m 0,00 h 0,00 h 0,0 UV-I 18 W/m 12,8 km/h (3 Bft)
30.07.2014 07:00 16,7 C 15,9 C 97 % 1011,4 hPa 0,0 l/m 0,00 h 0,00 h 0,0 UV-I 66 W/m 9,5 km/h (2 Bft)
30.07.2014 08:00 17,5 C 16,7 C 95 % 1011,7 hPa 0,0 l/m 0,53 h 0,00 h 0,4 UV-I 219 W/m 13,5 km/h (3 Bft)
30.07.2014 09:00 18,5 C 17,8 C 90 % 1011,9 hPa 0,0 l/m 0,10 h 0,00 h 0,7 UV-I 222 W/m 15,8 km/h (3 Bft)
30.07.2014 10:00 20,0 C 21,4 C 83 % 1012,0 hPa 0,0 l/m 0,50 h 0,00 h 2,0 UV-I 437 W/m 15,3 km/h (3 Bft)
30.07.2014 11:00 21,6 C 22,7 C 76 % 1012,2 hPa 0,0 l/m 0,87 h 0,00 h 3,5 UV-I 650 W/m 19,1 km/h (3 Bft)
30.07.2014 12:00 22,5 C 24,7 C 71 % 1012,5 hPa 0,0 l/m 0,77 h 0,00 h 4,3 UV-I 617 W/m 20,8 km/h (4 Bft)
30.07.2014 13:00 23,3 C 23,0 C 67 % 1012,6 hPa 0,0 l/m 0,87 h 0,00 h 4,6 UV-I 747 W/m 19,3 km/h (3 Bft)
30.07.2014 14:00 23,5 C 23,1 C 68 % 1012,7 hPa 0,0 l/m 0,37 h 0,00 h 2,8 UV-I 458 W/m 14,8 km/h (3 Bft)
30.07.2014 15:00 22,4 C 21,7 C 71 % 1012,8 hPa 0,0 l/m 0,00 h 0,00 h 0,7 UV-I 153 W/m 12,8 km/h (3 Bft)
30.07.2014 16:00 23,9 C 24,1 C 66 % 1012,8 hPa 0,0 l/m 0,67 h 0,00 h 2,3 UV-I 467 W/m 19,1 km/h (3 Bft)
30.07.2014 17:00 23,3 C 22,5 C 69 % 1012,9 hPa 0,0 l/m 0,33 h 0,00 h 1,1 UV-I 299 W/m 15,6 km/h (3 Bft)
30.07.2014 18:00 23,0 C 22,1 C 69 % 1012,8 hPa 0,0 l/m 0,60 h 0,00 h 0,3 UV-I 257 W/m 15,1 km/h (3 Bft)
30.07.2014 19:00 22,0 C 20,8 C 73 % 1013,1 hPa 0,0 l/m 0,30 h 0,00 h 0,0 UV-I 117 W/m 14,0 km/h (3 Bft)
30.07.2014 20:00 21,3 C 19,9 C 77 % 1013,5 hPa 0,0 l/m 0,33 h 0,00 h 0,0 UV-I 54 W/m 7,8 km/h (2 Bft)
30.07.2014 21:00 19,7 C 17,9 C 81 % 1014,1 hPa 0,0 l/m 0,13 h 0,00 h 0,0 UV-I 11 W/m 9,8 km/h (2 Bft)
30.07.2014 22:00 17,9 C 16,1 C 87 % 1014,7 hPa 0,0 l/m 0,00 h 0,00 h 0,0 UV-I 0 W/m 3,1 km/h (1 Bft)
30.07.2014 23:00 16,9 C 15,2 C 90 % 1015,1 hPa 0,0 l/m 0,00 h 0,00 h 0,0 UV-I 0 W/m 2,7 km/h (1 Bft)
31.07.2014 00:00 16,7 C 15,3 C 90 % 1015,4 hPa 0,0 l/m 0,00 h 0,00 h 0,0 UV-I 0 W/m 2,2 km/h (1 Bft)
31.07.2014 01:00 15,9 C 14,4 C 92 % 1015,5 hPa 0,0 l/m 0,00 h 0,00 h 0,0 UV-I 0 W/m 1,0 km/h (0 Bft)
31.07.2014 02:00 15,3 C 14,0 C 92 % 1015,6 hPa 0,0 l/m 0,00 h 0,00 h 0,0 UV-I 0 W/m 0,6 km/h (0 Bft)
31.07.2014 03:00 14,3 C 13,0 C 94 % 1015,8 hPa 0,0 l/m 0,00 h 0,00 h 0,0 UV-I 0 W/m 0,2 km/h (0 Bft)
31.07.2014 04:00 13,4 C 12,1 C 96 % 1015,8 hPa 0,0 l/m 0,00 h 0,00 h 0,0 UV-I 0 W/m 0,1 km/h (0 Bft)
31.07.2014 05:00 12,8 C 11,7 C 97 % 1015,7 hPa 0,0 l/m 0,00 h 0,00 h 0,0 UV-I 4 W/m 0,0 km/h (0 Bft)
31.07.2014 06:00 12,6 C 11,6 C 98 % 1016,1 hPa 0,0 l/m 0,77 h 0,00 h 0,0 UV-I 43 W/m 0,1 km/h (0 Bft)
31.07.2014 07:00 13,4 C 12,7 C 98 % 1016,2 hPa 0,0 l/m 1,00 h 0,00 h 0,0 UV-I 176 W/m 1,8 km/h (1 Bft)
31.07.2014 08:00 15,0 C 14,0 C 95 % 1016,3 hPa 0,0 l/m 1,00 h 0,00 h 0,6 UV-I 327 W/m 3,2 km/h (1 Bft)
31.07.2014 09:00 17,5 C 16,7 C 86 % 1016,3 hPa 0,0 l/m 1,00 h 0,00 h 1,4 UV-I 480 W/m 1,2 km/h (1 Bft)
31.07.2014 10:00 19,7 C 24,9 C 76 % 1016,3 hPa 0,0 l/m 1,00 h 0,00 h 2,7 UV-I 609 W/m 1,6 km/h (1 Bft)
31.07.2014 11:00 21,4 C 24,0 C 71 % 1016,1 hPa 0,0 l/m 1,00 h 0,00 h 4,0 UV-I 701 W/m 6,5 km/h (2 Bft)
31.07.2014 12:00 22,8 C 26,1 C 66 % 1015,7 hPa 0,0 l/m 0,80 h 0,00 h 4,2 UV-I 640 W/m 8,0 km/h (2 Bft)
31.07.2014 13:00 24,0 C 23,9 C 64 % 1015,3 hPa 0,0 l/m 1,00 h 0,00 h 5,0 UV-I 768 W/m 10,5 km/h (2 Bft)
31.07.2014 14:00 24,7 C 23,8 C 61 % 1014,8 hPa 0,0 l/m 1,00 h 0,00 h 4,6 UV-I 742 W/m 7,6 km/h (2 Bft)
31.07.2014 15:00 25,6 C 24,5 C 56 % 1014,3 hPa 0,0 l/m 1,00 h 0,00 h 3,8 UV-I 668 W/m 8,2 km/h (2 Bft)
31.07.2014 16:00 25,9 C 25,8 C 55 % 1013,9 hPa 0,0 l/m 1,00 h 0,00 h 2,6 UV-I 547 W/m 7,0 km/h (2 Bft)
31.07.2014 17:00 25,7 C 24,2 C 53 % 1013,4 hPa 0,0 l/m 1,00 h 0,00 h 1,3 UV-I 442 W/m 4,5 km/h (1 Bft)
31.07.2014 18:00 25,2 C 23,9 C 54 % 1013,0 hPa 0,0 l/m 0,97 h 0,00 h 0,5 UV-I 296 W/m 6,4 km/h (2 Bft)
31.07.2014 19:00 24,8 C 23,0 C 57 % 1012,7 hPa 0,0 l/m 0,80 h 0,00 h 0,0 UV-I 159 W/m 5,3 km/h (1 Bft)
31.07.2014 20:00 23,3 C 20,7 C 64 % 1012,8 hPa 0,0 l/m 0,00 h 0,00 h 0,0 UV-I 41 W/m 1,7 km/h (1 Bft)
31.07.2014 21:00 21,3 C 18,3 C 75 % 1012,9 hPa 0,0 l/m 0,00 h 0,00 h 0,0 UV-I 8 W/m 0,0 km/h (0 Bft)
31.07.2014 22:00 20,0 C 17,5 C 83 % 1012,9 hPa 0,0 l/m 0,00 h 0,00 h 0,0 UV-I 0 W/m 0,0 km/h (0 Bft)
31.07.2014 23:00 18,9 C 16,6 C 87 % 1012,7 hPa 0,0 l/m 0,00 h 0,00 h 0,0 UV-I 0 W/m 0,0 km/h (0 Bft)
01.08.2014 00:00 18,1 C 16,0 C 90 % 1012,5 hPa 0,0 l/m 0,00 h 0,00 h 0,0 UV-I 0 W/m 0,0 km/h (0 Bft)
01.08.2014 01:00 17,9 C 15,8 C 88 % 1012,1 hPa 0,0 l/m 0,00 h 0,00 h 0,0 UV-I 0 W/m 0,0 km/h (0 Bft)
01.08.2014 02:00 17,4 C 15,4 C 88 % 1011,9 hPa 0,0 l/m 0,00 h 0,00 h 0,0 UV-I 0 W/m 0,0 km/h (0 Bft)
01.08.2014 03:00 16,6 C 14,5 C 91 % 1011,8 hPa 0,0 l/m 0,00 h 0,00 h 0,0 UV-I 0 W/m 0,2 km/h (0 Bft)
01.08.2014 04:00 16,1 C 14,4 C 91 % 1011,6 hPa 0,0 l/m 0,00 h 0,00 h 0,0 UV-I 0 W/m 5,7 km/h (1 Bft)
01.08.2014 05:00 15,4 C 13,8 C 93 % 1011,5 hPa 0,0 l/m 0,00 h 0,00 h 0,0 UV-I 0 W/m 2,7 km/h (1 Bft)
01.08.2014 06:00 15,1 C 13,9 C 95 % 1011,3 hPa 0,0 l/m 0,77 h 0,00 h 0,0 UV-I 40 W/m 14,0 km/h (3 Bft)
01.08.2014 07:00 15,6 C 14,6 C 94 % 1011,3 hPa 0,0 l/m 0,33 h 0,00 h 0,0 UV-I 88 W/m 7,6 km/h (2 Bft)
01.08.2014 08:00 17,1 C 16,0 C 90 % 1011,3 hPa 0,0 l/m 0,77 h 0,00 h 0,5 UV-I 276 W/m 10,9 km/h (2 Bft)
01.08.2014 09:00 20,3 C 19,3 C 81 % 1011,2 hPa 0,0 l/m 1,00 h 0,00 h 1,2 UV-I 458 W/m 10,8 km/h (2 Bft)
01.08.2014 10:00 23,0 C 26,6 C 73 % 1011,1 hPa 0,0 l/m 1,00 h 0,00 h 2,4 UV-I 582 W/m 9,0 km/h (2 Bft)
01.08.2014 11:00 25,1 C 26,9 C 67 % 1010,7 hPa 0,0 l/m 1,00 h 0,00 h 3,5 UV-I 672 W/m 12,4 km/h (3 Bft)
01.08.2014 12:00 26,2 C 28,2 C 62 % 1010,3 hPa 0,0 l/m 0,70 h 0,00 h 3,9 UV-I 609 W/m 13,6 km/h (3 Bft)
01.08.2014 13:00 27,2 C 27,4 C 59 % 1010,1 hPa 0,0 l/m 0,83 h 0,00 h 3,9 UV-I 716 W/m 18,1 km/h (3 Bft)
01.08.2014 14:00 27,2 C 26,6 C 59 % 1009,7 hPa 0,0 l/m 0,60 h 0,00 h 2,9 UV-I 515 W/m 18,9 km/h (3 Bft)
01.08.2014 15:00 26,8 C 26,1 C 58 % 1009,4 hPa 0,0 l/m 0,27 h 0,00 h 1,9 UV-I 334 W/m 16,4 km/h (3 Bft)
01.08.2014 16:00 26,5 C 26,1 C 56 % 1009,0 hPa 0,0 l/m 0,27 h 0,00 h 1,5 UV-I 302 W/m 5,4 km/h (1 Bft)
01.08.2014 17:00 27,0 C 25,9 C 55 % 1008,7 hPa 0,0 l/m 0,77 h 0,00 h 1,1 UV-I 377 W/m 10,6 km/h (2 Bft)
01.08.2014 18:00 26,7 C 25,4 C 55 % 1008,4 hPa 0,0 l/m 0,93 h 0,00 h 0,5 UV-I 287 W/m 9,4 km/h (2 Bft)
01.08.2014 19:00 26,5 C 24,4 C 57 % 1008,1 hPa 0,0 l/m 0,60 h 0,00 h 0,0 UV-I 149 W/m 5,5 km/h (1 Bft)
01.08.2014 20:00 25,3 C 22,3 C 64 % 1007,8 hPa 0,0 l/m 0,00 h 0,00 h 0,0 UV-I 44 W/m 2,0 km/h (1 Bft)
01.08.2014 21:00 22,7 C 19,8 C 77 % 1007,8 hPa 0,0 l/m 0,00 h 0,00 h 0,0 UV-I 9 W/m 0,0 km/h (0 Bft)
01.08.2014 22:00 21,2 C 18,6 C 83 % 1007,9 hPa 0,0 l/m 0,00 h 0,00 h 0,0 UV-I 0 W/m 0,0 km/h (0 Bft)
01.08.2014 23:00 21,0 C 18,6 C 83 % 1007,9 hPa 0,0 l/m 0,00 h 0,00 h 0,0 UV-I 0 W/m 0,0 km/h (0 Bft)
02.08.2014 00:00 20,7 C 18,4 C 85 % 1007,8 hPa 0,0 l/m 0,00 h 0,00 h 0,0 UV-I 0 W/m 3,7 km/h (1 Bft)
02.08.2014 01:00 21,8 C 19,6 C 79 % 1007,5 hPa 0,0 l/m 0,00 h 0,00 h 0,0 UV-I 0 W/m 16,4 km/h (3 Bft)
02.08.2014 02:00 20,7 C 19,0 C 82 % 1007,2 hPa 0,0 l/m 0,00 h 0,00 h 0,0 UV-I 0 W/m 16,5 km/h (3 Bft)
02.08.2014 03:00 20,3 C 18,6 C 82 % 1007,0 hPa 0,0 l/m 0,00 h 0,00 h 0,0 UV-I 0 W/m 16,3 km/h (3 Bft)
02.08.2014 04:00 20,1 C 18,6 C 81 % 1006,7 hPa 0,0 l/m 0,00 h 0,00 h 0,0 UV-I 0 W/m 17,4 km/h (3 Bft)
02.08.2014 05:00 19,5 C 17,9 C 82 % 1006,5 hPa 0,0 l/m 0,00 h 0,00 h 0,0 UV-I 0 W/m 23,2 km/h (4 Bft)
02.08.2014 06:00 18,5 C 17,1 C 83 % 1006,3 hPa 0,0 l/m 0,43 h 0,00 h 0,0 UV-I 34 W/m 14,0 km/h (3 Bft)
02.08.2014 07:00 18,6 C 17,4 C 84 % 1006,3 hPa 0,0 l/m 0,20 h 0,00 h 0,0 UV-I 72 W/m 5,4 km/h (1 Bft)
02.08.2014 08:00 20,2 C 19,3 C 81 % 1006,3 hPa 0,0 l/m 0,83 h 0,00 h 0,0 UV-I 245 W/m 19,9 km/h (4 Bft)
02.08.2014 09:00 22,4 C 21,5 C 75 % 1006,2 hPa 0,0 l/m 0,43 h 0,00 h 0,7 UV-I 271 W/m 27,0 km/h (4 Bft)
02.08.2014 10:00 25,4 C 28,0 C 67 % 1005,8 hPa 0,0 l/m 1,00 h 0,00 h 2,4 UV-I 632 W/m 31,4 km/h (5 Bft)
02.08.2014 11:00 26,9 C 27,5 C 60 % 1005,4 hPa 0,0 l/m 0,97 h 0,00 h 3,3 UV-I 616 W/m 37,2 km/h (5 Bft)
02.08.2014 12:00 28,2 C 29,6 C 58 % 1004,9 hPa 0,0 l/m 0,95 h 0,00 h 4,1 UV-I 681 W/m 37,3 km/h (5 Bft)
02.08.2014 13:00 28,0 C 27,1 C 57 % 1004,7 hPa 0,0 l/m 0,30 h 0,00 h 2,4 UV-I 346 W/m 33,3 km/h (5 Bft)
02.08.2014 14:00 22,7 C 20,0 C 76 % 1004,9 hPa 18,4 l/m 0,00 h 0,70 h 0,6 UV-I 56 W/m 37,1 km/h (5 Bft)
02.08.2014 15:00 19,3 C 18,1 C 95 % 1005,3 hPa 16,2 l/m 0,37 h 0,33 h 1,8 UV-I 310 W/m 17,0 km/h (3 Bft)
02.08.2014 16:00 21,5 C 19,4 C 89 % 1004,8 hPa 0,0 l/m 0,13 h 0,17 h 1,4 UV-I 185 W/m 5,0 km/h (1 Bft)
02.08.2014 17:00 21,7 C 20,0 C 94 % 1005,2 hPa 0,2 l/m 0,20 h 0,43 h 0,5 UV-I 178 W/m 13,1 km/h (3 Bft)
02.08.2014 18:00 22,1 C 20,5 C 92 % 1005,1 hPa 0,0 l/m 0,57 h 0,00 h 0,0 UV-I 202 W/m 22,5 km/h (4 Bft)
02.08.2014 19:00 22,2 C 20,6 C 91 % 1005,3 hPa 0,0 l/m 0,43 h 0,00 h 0,0 UV-I 117 W/m 16,6 km/h (3 Bft)
02.08.2014 20:00 21,8 C 20,2 C 91 % 1005,8 hPa 0,0 l/m 0,47 h 0,00 h 0,0 UV-I 53 W/m 14,4 km/h (3 Bft)
02.08.2014 21:00 20,8 C 18,9 C 92 % 1006,1 hPa 0,0 l/m 0,13 h 0,00 h 0,0 UV-I 16 W/m 6,4 km/h (2 Bft)
02.08.2014 22:00 19,7 C 18,0 C 95 % 1006,5 hPa 0,0 l/m 0,00 h 0,00 h 0,0 UV-I 0 W/m 11,1 km/h (2 Bft)
02.08.2014 23:00 19,1 C 17,4 C 96 % 1006,8 hPa 0,0 l/m 0,00 h 0,00 h 0,0 UV-I 0 W/m 11,0 km/h (2 Bft)
03.08.2014 00:00 18,9 C 17,2 C 96 % 1006,6 hPa 0,0 l/m 0,00 h 0,00 h 0,0 UV-I 0 W/m 9,1 km/h (2 Bft)
03.08.2014 01:00 18,8 C 17,1 C 97 % 1006,7 hPa 0,0 l/m 0,00 h 0,00 h 0,0 UV-I 0 W/m 0,2 km/h (0 Bft)
03.08.2014 02:00 18,0 C 16,4 C 98 % 1006,8 hPa 0,0 l/m 0,00 h 0,00 h 0,0 UV-I 0 W/m 0,0 km/h (0 Bft)
03.08.2014 03:00 17,4 C 15,8 C 98 % 1007,4 hPa 0,0 l/m 0,00 h 0,00 h 0,0 UV-I 0 W/m 0,9 km/h (0 Bft)
03.08.2014 04:00 17,5 C 16,1 C 97 % 1007,8 hPa 0,0 l/m 0,00 h 0,00 h 0,0 UV-I 0 W/m 14,9 km/h (3 Bft)
03.08.2014 05:00 17,0 C 15,4 C 94 % 1008,2 hPa 0,0 l/m 0,00 h 0,00 h 0,0 UV-I 0 W/m 1,7 km/h (1 Bft)
03.08.2014 06:00 16,2 C 14,6 C 96 % 1008,7 hPa 0,0 l/m 0,00 h 0,00 h 0,0 UV-I 24 W/m 0,0 km/h (0 Bft)
03.08.2014 07:00 16,8 C 15,6 C 96 % 1009,3 hPa 0,0 l/m 1,00 h 0,00 h 0,0 UV-I 173 W/m 1,7 km/h (1 Bft)
03.08.2014 08:00 18,4 C 17,2 C 91 % 1009,9 hPa 0,0 l/m 0,97 h 0,00 h 0,3 UV-I 292 W/m 10,5 km/h (2 Bft)
03.08.2014 09:00 19,7 C 18,6 C 87 % 1010,3 hPa 0,0 l/m 0,90 h 0,00 h 1,0 UV-I 359 W/m 9,2 km/h (2 Bft)
03.08.2014 10:00 21,6 C 24,5 C 80 % 1010,6 hPa 0,0 l/m 1,00 h 0,00 h 2,4 UV-I 592 W/m 12,3 km/h (3 Bft)
03.08.2014 11:00 22,8 C 23,6 C 77 % 1011,0 hPa 0,0 l/m 0,93 h 0,00 h 3,2 UV-I 594 W/m 14,2 km/h (3 Bft)
03.08.2014 12:00 23,6 C 24,1 C 74 % 1011,0 hPa 0,0 l/m 0,98 h 0,00 h 3,1 UV-I 487 W/m 12,9 km/h (3 Bft)
03.08.2014 13:00 24,1 C 24,3 C 72 % 1011,0 hPa 0,0 l/m 1,00 h 0,00 h 3,5 UV-I 538 W/m 15,1 km/h (3 Bft)
03.08.2014 14:00 24,3 C 24,3 C 71 % 1010,9 hPa 0,0 l/m 0,93 h 0,00 h 3,3 UV-I 524 W/m 17,4 km/h (3 Bft)
03.08.2014 15:00 24,2 C 24,2 C 70 % 1010,8 hPa 0,0 l/m 0,77 h 0,00 h 2,6 UV-I 441 W/m 11,7 km/h (2 Bft)
03.08.2014 16:00 24,5 C 24,4 C 69 % 1010,7 hPa 0,0 l/m 0,83 h 0,00 h 1,7 UV-I 360 W/m 11,7 km/h (2 Bft)
03.08.2014 17:00 24,6 C 24,1 C 68 % 1010,5 hPa 0,0 l/m 0,67 h 0,00 h 1,0 UV-I 340 W/m 11,0 km/h (2 Bft)
03.08.2014 18:00 25,0 C 23,7 C 66 % 1010,3 hPa 0,0 l/m 0,93 h 0,00 h 0,6 UV-I 354 W/m 11,3 km/h (2 Bft)
03.08.2014 19:00 24,7 C 22,7 C 66 % 1010,2 hPa 0,0 l/m 0,63 h 0,00 h 0,0 UV-I 135 W/m 13,9 km/h (3 Bft)
03.08.2014 20:00 21,6 C 19,6 C 75 % 1011,4 hPa 1,8 l/m 0,00 h 0,20 h 0,0 UV-I 5 W/m 34,3 km/h (5 Bft)
03.08.2014 21:00 15,8 C 14,1 C 93 % 1012,1 hPa 12,6 l/m 0,00 h 0,97 h 0,0 UV-I 0 W/m 11,2 km/h (2 Bft)
03.08.2014 22:00 16,0 C 14,6 C 97 % 1012,1 hPa 0,8 l/m 0,00 h 0,37 h 0,0 UV-I 0 W/m 10,0 km/h (2 Bft)
03.08.2014 23:00 15,9 C 14,6 C 98 % 1012,5 hPa 0,0 l/m 0,00 h 0,03 h 0,0 UV-I 0 W/m 16,8 km/h (3 Bft)
Min-Datum _ 31.07.14 31.07.14 31.07.14 02.08.14 - - - - - 28.07.14
_ Min-Zeit 06:24 06:08 17:02 14:18 - - - - - 00:00
Minimum _ 12,5 C 11,1 C 50 % 1004,3 hPa - - - - - 0,0 km/h (0 Bft)
Max-Datum _ 02.08.14 28.07.14 29.07.14 31.07.14 02.08.14 28.07.14 28.07.14 30.07.14 30.07.14 29.07.14
_ Max-Zeit 13:10 12:14 00:36 08:54 14:54 06:06 07:36 13:16 14:46 15:02
Maximum _ 29,2 C 30,6 C 100 % 1016,4 hPa 18,4 l/m 0,03 h 0,03 h 5,5 UV-I 927 W/m 90,0 km/h
W (10 Bft)
Durchschnitt _ 20,6 C 19,7 C 84 % 1010,6 hPa #108,6 l/m #56:02 h #8:10 h 2,1 UV-I 286 W/m 9,7 km/h (2 Bft)
© 2014 W. Hausmann